sensor_id;sensor_type;location;lat;lon;timestamp;P1;durP1;ratioP1;P2;durP2;ratioP2
8113;SDS011;4099;52.684;9.918;2022-11-20T00:02:43;20.27;;;13.37;;
8113;SDS011;4099;52.684;9.918;2022-11-20T00:07:48;18.77;;;12.47;;
8113;SDS011;4099;52.684;9.918;2022-11-20T00:12:54;31.57;;;18.70;;
8113;SDS011;4099;52.684;9.918;2022-11-20T00:17:59;26.57;;;15.30;;
8113;SDS011;4099;52.684;9.918;2022-11-20T00:23:06;20.70;;;13.50;;
8113;SDS011;4099;52.684;9.918;2022-11-20T00:28:12;20.97;;;13.20;;
8113;SDS011;4099;52.684;9.918;2022-11-20T00:33:15;18.73;;;13.27;;
8113;SDS011;4099;52.684;9.918;2022-11-20T00:38:21;19.03;;;12.80;;
8113;SDS011;4099;52.684;9.918;2022-11-20T00:43:24;18.10;;;12.17;;
8113;SDS011;4099;52.684;9.918;2022-11-20T00:48:28;20.77;;;13.13;;
8113;SDS011;4099;52.684;9.918;2022-11-20T00:53:36;18.97;;;12.57;;
8113;SDS011;4099;52.684;9.918;2022-11-20T00:58:39;19.77;;;13.40;;
8113;SDS011;4099;52.684;9.918;2022-11-20T01:03:44;18.07;;;11.60;;
8113;SDS011;4099;52.684;9.918;2022-11-20T01:08:51;21.53;;;13.23;;
8113;SDS011;4099;52.684;9.918;2022-11-20T01:13:56;17.77;;;12.50;;
8113;SDS011;4099;52.684;9.918;2022-11-20T01:19:00;18.93;;;13.00;;
8113;SDS011;4099;52.684;9.918;2022-11-20T01:24:08;19.37;;;13.33;;
8113;SDS011;4099;52.684;9.918;2022-11-20T01:29:14;21.97;;;14.53;;
8113;SDS011;4099;52.684;9.918;2022-11-20T01:34:18;20.50;;;12.67;;
8113;SDS011;4099;52.684;9.918;2022-11-20T01:39:25;19.87;;;12.90;;
8113;SDS011;4099;52.684;9.918;2022-11-20T01:44:45;17.17;;;11.83;;
8113;SDS011;4099;52.684;9.918;2022-11-20T01:49:59;18.87;;;12.40;;
8113;SDS011;4099;52.684;9.918;2022-11-20T01:55:08;18.77;;;12.47;;
8113;SDS011;4099;52.684;9.918;2022-11-20T02:00:16;18.97;;;13.23;;
8113;SDS011;4099;52.684;9.918;2022-11-20T02:05:23;18.70;;;12.93;;
8113;SDS011;4099;52.684;9.918;2022-11-20T02:10:30;17.43;;;12.03;;
8113;SDS011;4099;52.684;9.918;2022-11-20T02:15:33;20.57;;;13.10;;
8113;SDS011;4099;52.684;9.918;2022-11-20T02:20:36;15.97;;;11.47;;
8113;SDS011;4099;52.684;9.918;2022-11-20T02:25:41;18.77;;;12.40;;
8113;SDS011;4099;52.684;9.918;2022-11-20T02:30:47;17.40;;;12.60;;
8113;SDS011;4099;52.684;9.918;2022-11-20T02:35:50;18.87;;;12.27;;
8113;SDS011;4099;52.684;9.918;2022-11-20T02:41:03;18.43;;;11.93;;
8113;SDS011;4099;52.684;9.918;2022-11-20T02:46:08;17.27;;;11.97;;
8113;SDS011;4099;52.684;9.918;2022-11-20T02:51:11;17.30;;;11.60;;
8113;SDS011;4099;52.684;9.918;2022-11-20T02:56:16;17.90;;;11.97;;
8113;SDS011;4099;52.684;9.918;2022-11-20T03:01:20;17.33;;;11.57;;
8113;SDS011;4099;52.684;9.918;2022-11-20T03:06:23;19.63;;;12.53;;
8113;SDS011;4099;52.684;9.918;2022-11-20T03:11:30;22.93;;;12.33;;
8113;SDS011;4099;52.684;9.918;2022-11-20T03:16:32;17.53;;;11.87;;
8113;SDS011;4099;52.684;9.918;2022-11-20T03:21:37;16.53;;;12.20;;
8113;SDS011;4099;52.684;9.918;2022-11-20T03:26:41;18.93;;;12.47;;
8113;SDS011;4099;52.684;9.918;2022-11-20T03:31:45;14.87;;;11.10;;
8113;SDS011;4099;52.684;9.918;2022-11-20T03:36:48;17.43;;;11.83;;
8113;SDS011;4099;52.684;9.918;2022-11-20T03:41:54;19.53;;;11.00;;
8113;SDS011;4099;52.684;9.918;2022-11-20T03:46:56;16.27;;;11.47;;
8113;SDS011;4099;52.684;9.918;2022-11-20T03:51:59;16.87;;;11.63;;
8113;SDS011;4099;52.684;9.918;2022-11-20T03:57:03;18.00;;;12.03;;
8113;SDS011;4099;52.684;9.918;2022-11-20T04:02:18;18.17;;;11.27;;
8113;SDS011;4099;52.684;9.918;2022-11-20T04:07:21;17.63;;;11.73;;
8113;SDS011;4099;52.684;9.918;2022-11-20T04:12:28;16.53;;;11.20;;
8113;SDS011;4099;52.684;9.918;2022-11-20T04:17:36;18.17;;;12.20;;
8113;SDS011;4099;52.684;9.918;2022-11-20T04:22:41;19.57;;;12.40;;
8113;SDS011;4099;52.684;9.918;2022-11-20T04:27:48;18.13;;;12.60;;
8113;SDS011;4099;52.684;9.918;2022-11-20T04:32:52;18.83;;;12.80;;
8113;SDS011;4099;52.684;9.918;2022-11-20T04:37:55;20.13;;;13.03;;
8113;SDS011;4099;52.684;9.918;2022-11-20T04:43:00;19.37;;;12.70;;
8113;SDS011;4099;52.684;9.918;2022-11-20T04:48:03;18.37;;;12.40;;
8113;SDS011;4099;52.684;9.918;2022-11-20T04:53:11;19.97;;;12.37;;
8113;SDS011;4099;52.684;9.918;2022-11-20T04:58:16;20.07;;;12.73;;
8113;SDS011;4099;52.684;9.918;2022-11-20T05:03:21;20.53;;;12.53;;
8113;SDS011;4099;52.684;9.918;2022-11-20T05:08:24;18.67;;;12.40;;
8113;SDS011;4099;52.684;9.918;2022-11-20T05:13:30;21.37;;;13.03;;
8113;SDS011;4099;52.684;9.918;2022-11-20T05:18:50;18.93;;;12.17;;
8113;SDS011;4099;52.684;9.918;2022-11-20T05:23:58;17.90;;;11.87;;
8113;SDS011;4099;52.684;9.918;2022-11-20T05:29:05;20.50;;;12.97;;
8113;SDS011;4099;52.684;9.918;2022-11-20T05:34:08;18.33;;;12.27;;
8113;SDS011;4099;52.684;9.918;2022-11-20T05:39:11;19.87;;;12.43;;
8113;SDS011;4099;52.684;9.918;2022-11-20T05:44:20;19.80;;;12.63;;
8113;SDS011;4099;52.684;9.918;2022-11-20T05:49:22;21.10;;;12.37;;
8113;SDS011;4099;52.684;9.918;2022-11-20T05:54:30;16.63;;;12.00;;
8113;SDS011;4099;52.684;9.918;2022-11-20T05:59:37;19.00;;;12.83;;
8113;SDS011;4099;52.684;9.918;2022-11-20T06:04:40;22.83;;;13.17;;
8113;SDS011;4099;52.684;9.918;2022-11-20T06:09:45;20.43;;;13.60;;
8113;SDS011;4099;52.684;9.918;2022-11-20T06:14:50;16.23;;;12.10;;
8113;SDS011;4099;52.684;9.918;2022-11-20T06:19:52;19.57;;;12.50;;
8113;SDS011;4099;52.684;9.918;2022-11-20T06:25:01;18.93;;;12.03;;
8113;SDS011;4099;52.684;9.918;2022-11-20T06:30:07;19.17;;;12.30;;
8113;SDS011;4099;52.684;9.918;2022-11-20T06:35:11;21.03;;;12.60;;
8113;SDS011;4099;52.684;9.918;2022-11-20T06:40:20;19.03;;;12.10;;
8113;SDS011;4099;52.684;9.918;2022-11-20T06:45:34;18.40;;;12.07;;
8113;SDS011;4099;52.684;9.918;2022-11-20T06:50:40;23.80;;;15.50;;
8113;SDS011;4099;52.684;9.918;2022-11-20T06:55:45;19.93;;;14.00;;
8113;SDS011;4099;52.684;9.918;2022-11-20T07:00:51;20.03;;;13.00;;
8113;SDS011;4099;52.684;9.918;2022-11-20T07:05:56;27.13;;;19.33;;
8113;SDS011;4099;52.684;9.918;2022-11-20T07:11:06;21.10;;;13.93;;
8113;SDS011;4099;52.684;9.918;2022-11-20T07:16:41;28.17;;;17.20;;
8113;SDS011;4099;52.684;9.918;2022-11-20T07:21:46;21.33;;;13.77;;
8113;SDS011;4099;52.684;9.918;2022-11-20T07:26:54;21.80;;;14.13;;
8113;SDS011;4099;52.684;9.918;2022-11-20T07:32:10;20.63;;;13.27;;
8113;SDS011;4099;52.684;9.918;2022-11-20T07:37:15;21.33;;;13.40;;
8113;SDS011;4099;52.684;9.918;2022-11-20T07:42:21;17.70;;;12.33;;
8113;SDS011;4099;52.684;9.918;2022-11-20T07:47:39;18.67;;;12.67;;
8113;SDS011;4099;52.684;9.918;2022-11-20T07:52:46;21.60;;;14.23;;
8113;SDS011;4099;52.684;9.918;2022-11-20T07:57:55;22.93;;;15.73;;
8113;SDS011;4099;52.684;9.918;2022-11-20T08:03:04;20.80;;;14.97;;
8113;SDS011;4099;52.684;9.918;2022-11-20T08:08:10;21.30;;;13.67;;
8113;SDS011;4099;52.684;9.918;2022-11-20T08:13:17;19.43;;;13.97;;
8113;SDS011;4099;52.684;9.918;2022-11-20T08:18:39;18.03;;;12.60;;
8113;SDS011;4099;52.684;9.918;2022-11-20T08:23:54;18.13;;;12.00;;
8113;SDS011;4099;52.684;9.918;2022-11-20T08:28:59;17.50;;;12.40;;
8113;SDS011;4099;52.684;9.918;2022-11-20T08:34:06;16.13;;;12.77;;
8113;SDS011;4099;52.684;9.918;2022-11-20T08:39:26;18.67;;;13.33;;
8113;SDS011;4099;52.684;9.918;2022-11-20T08:44:45;20.17;;;14.10;;
8113;SDS011;4099;52.684;9.918;2022-11-20T08:49:53;22.17;;;15.27;;
8113;SDS011;4099;52.684;9.918;2022-11-20T08:55:01;16.57;;;10.70;;
8113;SDS011;4099;52.684;9.918;2022-11-20T09:00:14;17.43;;;10.80;;
8113;SDS011;4099;52.684;9.918;2022-11-20T09:05:29;14.67;;;10.30;;
8113;SDS011;4099;52.684;9.918;2022-11-20T09:10:33;17.40;;;11.53;;
8113;SDS011;4099;52.684;9.918;2022-11-20T09:15:43;15.50;;;11.23;;
8113;SDS011;4099;52.684;9.918;2022-11-20T09:21:09;20.47;;;11.37;;
8113;SDS011;4099;52.684;9.918;2022-11-20T09:26:20;19.03;;;13.50;;
8113;SDS011;4099;52.684;9.918;2022-11-20T09:31:27;19.93;;;13.97;;
8113;SDS011;4099;52.684;9.918;2022-11-20T09:36:32;27.50;;;17.90;;
8113;SDS011;4099;52.684;9.918;2022-11-20T09:41:46;23.03;;;16.53;;
8113;SDS011;4099;52.684;9.918;2022-11-20T09:47:23;22.40;;;15.23;;
8113;SDS011;4099;52.684;9.918;2022-11-20T09:52:45;22.10;;;15.27;;
8113;SDS011;4099;52.684;9.918;2022-11-20T09:57:59;23.03;;;16.03;;
8113;SDS011;4099;52.684;9.918;2022-11-20T10:03:11;29.23;;;18.27;;
8113;SDS011;4099;52.684;9.918;2022-11-20T10:08:25;16.60;;;12.13;;
8113;SDS011;4099;52.684;9.918;2022-11-20T10:13:45;16.20;;;12.10;;
8113;SDS011;4099;52.684;9.918;2022-11-20T10:19:11;24.27;;;13.80;;
8113;SDS011;4099;52.684;9.918;2022-11-20T10:30:03;14.00;;;10.10;;
8113;SDS011;4099;52.684;9.918;2022-11-20T10:35:18;17.30;;;11.37;;
8113;SDS011;4099;52.684;9.918;2022-11-20T10:40:39;15.63;;;11.00;;
8113;SDS011;4099;52.684;9.918;2022-11-20T10:45:55;18.37;;;12.10;;
8113;SDS011;4099;52.684;9.918;2022-11-20T10:51:10;16.00;;;10.97;;
8113;SDS011;4099;52.684;9.918;2022-11-20T10:56:30;14.30;;;8.93;;
8113;SDS011;4099;52.684;9.918;2022-11-20T11:01:39;14.47;;;10.20;;
8113;SDS011;4099;52.684;9.918;2022-11-20T11:06:46;13.20;;;9.03;;
8113;SDS011;4099;52.684;9.918;2022-11-20T11:11:57;12.47;;;9.53;;
8113;SDS011;4099;52.684;9.918;2022-11-20T11:17:02;13.50;;;10.60;;
8113;SDS011;4099;52.684;9.918;2022-11-20T11:22:16;13.50;;;10.50;;
8113;SDS011;4099;52.684;9.918;2022-11-20T11:33:02;11.97;;;8.93;;
8113;SDS011;4099;52.684;9.918;2022-11-20T11:38:15;10.53;;;8.03;;
8113;SDS011;4099;52.684;9.918;2022-11-20T11:43:49;11.63;;;8.63;;
8113;SDS011;4099;52.684;9.918;2022-11-20T11:49:22;12.13;;;9.20;;
8113;SDS011;4099;52.684;9.918;2022-11-20T11:54:34;11.87;;;9.00;;
8113;SDS011;4099;52.684;9.918;2022-11-20T12:05:23;12.40;;;8.43;;
8113;SDS011;4099;52.684;9.918;2022-11-20T12:10:37;13.80;;;9.50;;
8113;SDS011;4099;52.684;9.918;2022-11-20T12:15:49;29.10;;;19.83;;
8113;SDS011;4099;52.684;9.918;2022-11-20T12:21:09;20.13;;;13.67;;
8113;SDS011;4099;52.684;9.918;2022-11-20T12:26:33;12.57;;;10.37;;
8113;SDS011;4099;52.684;9.918;2022-11-20T12:32:00;11.47;;;8.33;;
8113;SDS011;4099;52.684;9.918;2022-11-20T12:37:34;12.83;;;9.87;;
8113;SDS011;4099;52.684;9.918;2022-11-20T12:42:54;15.30;;;10.77;;
8113;SDS011;4099;52.684;9.918;2022-11-20T12:48:32;10.70;;;8.50;;
8113;SDS011;4099;52.684;9.918;2022-11-20T12:53:56;12.07;;;9.70;;
8113;SDS011;4099;52.684;9.918;2022-11-20T12:59:27;14.30;;;10.53;;
8113;SDS011;4099;52.684;9.918;2022-11-20T13:10:34;10.80;;;8.50;;
8113;SDS011;4099;52.684;9.918;2022-11-20T13:15:49;11.20;;;8.87;;
8113;SDS011;4099;52.684;9.918;2022-11-20T13:20:59;14.90;;;10.23;;
8113;SDS011;4099;52.684;9.918;2022-11-20T13:26:24;15.07;;;10.10;;
8113;SDS011;4099;52.684;9.918;2022-11-20T13:31:30;12.53;;;10.60;;
8113;SDS011;4099;52.684;9.918;2022-11-20T13:36:50;13.07;;;9.83;;
8113;SDS011;4099;52.684;9.918;2022-11-20T13:41:57;15.83;;;10.33;;
8113;SDS011;4099;52.684;9.918;2022-11-20T13:47:17;48.93;;;28.87;;
8113;SDS011;4099;52.684;9.918;2022-11-20T13:52:36;20.33;;;14.77;;
8113;SDS011;4099;52.684;9.918;2022-11-20T13:57:57;29.10;;;21.00;;
8113;SDS011;4099;52.684;9.918;2022-11-20T14:03:18;20.23;;;14.50;;
8113;SDS011;4099;52.684;9.918;2022-11-20T14:08:31;18.53;;;14.03;;
8113;SDS011;4099;52.684;9.918;2022-11-20T14:13:57;21.50;;;14.17;;
8113;SDS011;4099;52.684;9.918;2022-11-20T14:19:26;19.43;;;14.57;;
8113;SDS011;4099;52.684;9.918;2022-11-20T14:24:39;16.43;;;12.07;;
8113;SDS011;4099;52.684;9.918;2022-11-20T14:29:57;17.67;;;12.43;;
8113;SDS011;4099;52.684;9.918;2022-11-20T14:35:10;21.30;;;13.43;;
8113;SDS011;4099;52.684;9.918;2022-11-20T14:40:32;22.57;;;14.47;;
8113;SDS011;4099;52.684;9.918;2022-11-20T14:46:00;26.23;;;17.57;;
8113;SDS011;4099;52.684;9.918;2022-11-20T14:51:29;27.13;;;17.20;;
8113;SDS011;4099;52.684;9.918;2022-11-20T14:56:43;20.33;;;13.60;;
8113;SDS011;4099;52.684;9.918;2022-11-20T15:01:57;18.80;;;13.47;;
8113;SDS011;4099;52.684;9.918;2022-11-20T15:07:09;19.27;;;14.17;;
8113;SDS011;4099;52.684;9.918;2022-11-20T15:12:26;17.10;;;12.10;;
8113;SDS011;4099;52.684;9.918;2022-11-20T15:17:30;17.63;;;12.37;;
8113;SDS011;4099;52.684;9.918;2022-11-20T15:22:37;17.93;;;12.80;;
8113;SDS011;4099;52.684;9.918;2022-11-20T15:27:47;22.27;;;14.47;;
8113;SDS011;4099;52.684;9.918;2022-11-20T15:32:58;18.43;;;12.90;;
8113;SDS011;4099;52.684;9.918;2022-11-20T15:38:02;20.27;;;13.87;;
8113;SDS011;4099;52.684;9.918;2022-11-20T15:43:19;20.50;;;13.77;;
8113;SDS011;4099;52.684;9.918;2022-11-20T15:48:24;19.27;;;12.47;;
8113;SDS011;4099;52.684;9.918;2022-11-20T15:53:32;18.67;;;13.27;;
8113;SDS011;4099;52.684;9.918;2022-11-20T15:58:36;18.70;;;13.57;;
8113;SDS011;4099;52.684;9.918;2022-11-20T16:03:40;18.53;;;13.03;;
8113;SDS011;4099;52.684;9.918;2022-11-20T16:08:46;20.93;;;13.73;;
8113;SDS011;4099;52.684;9.918;2022-11-20T16:13:52;19.30;;;13.67;;
8113;SDS011;4099;52.684;9.918;2022-11-20T16:19:12;19.87;;;14.50;;
8113;SDS011;4099;52.684;9.918;2022-11-20T16:24:15;17.70;;;13.30;;
8113;SDS011;4099;52.684;9.918;2022-11-20T16:29:23;18.70;;;13.20;;
8113;SDS011;4099;52.684;9.918;2022-11-20T16:34:34;25.40;;;16.07;;
8113;SDS011;4099;52.684;9.918;2022-11-20T16:39:37;19.90;;;15.07;;
8113;SDS011;4099;52.684;9.918;2022-11-20T16:44:45;20.47;;;15.07;;
8113;SDS011;4099;52.684;9.918;2022-11-20T16:49:48;19.57;;;13.77;;
8113;SDS011;4099;52.684;9.918;2022-11-20T16:54:52;18.47;;;13.30;;
8113;SDS011;4099;52.684;9.918;2022-11-20T16:59:56;18.07;;;13.30;;
8113;SDS011;4099;52.684;9.918;2022-11-20T17:05:02;17.90;;;13.07;;
8113;SDS011;4099;52.684;9.918;2022-11-20T17:10:05;15.53;;;10.77;;
8113;SDS011;4099;52.684;9.918;2022-11-20T17:15:25;15.13;;;10.97;;
8113;SDS011;4099;52.684;9.918;2022-11-20T17:20:45;16.30;;;11.10;;
8113;SDS011;4099;52.684;9.918;2022-11-20T17:25:59;18.70;;;12.37;;
8113;SDS011;4099;52.684;9.918;2022-11-20T17:31:06;20.30;;;14.33;;
8113;SDS011;4099;52.684;9.918;2022-11-20T17:36:13;30.33;;;20.43;;
8113;SDS011;4099;52.684;9.918;2022-11-20T17:41:19;31.63;;;21.47;;
8113;SDS011;4099;52.684;9.918;2022-11-20T17:46:29;29.13;;;19.13;;
8113;SDS011;4099;52.684;9.918;2022-11-20T17:51:35;28.47;;;19.20;;
8113;SDS011;4099;52.684;9.918;2022-11-20T17:56:38;42.70;;;24.23;;
8113;SDS011;4099;52.684;9.918;2022-11-20T18:02:00;52.27;;;30.00;;
8113;SDS011;4099;52.684;9.918;2022-11-20T18:07:10;52.60;;;30.13;;
8113;SDS011;4099;52.684;9.918;2022-11-20T18:12:16;45.17;;;26.43;;
8113;SDS011;4099;52.684;9.918;2022-11-20T18:17:21;40.13;;;24.40;;
8113;SDS011;4099;52.684;9.918;2022-11-20T18:22:24;72.90;;;41.07;;
8113;SDS011;4099;52.684;9.918;2022-11-20T18:27:27;49.70;;;29.53;;
8113;SDS011;4099;52.684;9.918;2022-11-20T18:32:34;43.97;;;27.10;;
8113;SDS011;4099;52.684;9.918;2022-11-20T18:37:37;37.57;;;24.57;;
8113;SDS011;4099;52.684;9.918;2022-11-20T18:42:40;27.63;;;19.43;;
8113;SDS011;4099;52.684;9.918;2022-11-20T18:48:01;30.73;;;20.67;;
8113;SDS011;4099;52.684;9.918;2022-11-20T18:53:13;29.63;;;20.83;;
8113;SDS011;4099;52.684;9.918;2022-11-20T18:58:18;29.60;;;20.13;;
8113;SDS011;4099;52.684;9.918;2022-11-20T19:03:23;24.77;;;17.23;;
8113;SDS011;4099;52.684;9.918;2022-11-20T19:08:29;28.40;;;18.60;;
8113;SDS011;4099;52.684;9.918;2022-11-20T19:13:41;27.77;;;18.13;;
8113;SDS011;4099;52.684;9.918;2022-11-20T19:18:51;26.93;;;16.60;;
8113;SDS011;4099;52.684;9.918;2022-11-20T19:23:57;23.37;;;15.73;;
8113;SDS011;4099;52.684;9.918;2022-11-20T19:29:03;20.00;;;13.47;;
8113;SDS011;4099;52.684;9.918;2022-11-20T19:34:09;18.33;;;12.90;;
8113;SDS011;4099;52.684;9.918;2022-11-20T19:39:12;21.57;;;14.23;;
8113;SDS011;4099;52.684;9.918;2022-11-20T19:44:15;23.47;;;15.77;;
8113;SDS011;4099;52.684;9.918;2022-11-20T19:49:20;21.33;;;14.40;;
8113;SDS011;4099;52.684;9.918;2022-11-20T19:54:25;25.37;;;16.17;;
8113;SDS011;4099;52.684;9.918;2022-11-20T19:59:33;23.83;;;14.50;;
8113;SDS011;4099;52.684;9.918;2022-11-20T20:04:43;22.10;;;14.63;;
8113;SDS011;4099;52.684;9.918;2022-11-20T20:09:47;27.37;;;17.17;;
8113;SDS011;4099;52.684;9.918;2022-11-20T20:14:52;22.17;;;14.33;;
8113;SDS011;4099;52.684;9.918;2022-11-20T20:19:57;22.97;;;13.83;;
8113;SDS011;4099;52.684;9.918;2022-11-20T20:25:02;23.10;;;14.90;;
8113;SDS011;4099;52.684;9.918;2022-11-20T20:30:07;19.13;;;13.17;;
8113;SDS011;4099;52.684;9.918;2022-11-20T20:40:45;18.73;;;12.07;;
8113;SDS011;4099;52.684;9.918;2022-11-20T20:45:50;19.10;;;13.03;;
8113;SDS011;4099;52.684;9.918;2022-11-20T20:50:55;21.73;;;13.50;;
8113;SDS011;4099;52.684;9.918;2022-11-20T20:56:04;20.40;;;13.67;;
8113;SDS011;4099;52.684;9.918;2022-11-20T21:01:12;17.80;;;12.53;;
8113;SDS011;4099;52.684;9.918;2022-11-20T21:06:19;18.13;;;12.80;;
8113;SDS011;4099;52.684;9.918;2022-11-20T21:11:22;18.43;;;12.53;;
8113;SDS011;4099;52.684;9.918;2022-11-20T21:16:26;16.50;;;11.57;;
8113;SDS011;4099;52.684;9.918;2022-11-20T21:21:44;17.37;;;12.10;;
8113;SDS011;4099;52.684;9.918;2022-11-20T21:27:04;18.83;;;12.90;;
8113;SDS011;4099;52.684;9.918;2022-11-20T21:32:15;23.47;;;15.17;;
8113;SDS011;4099;52.684;9.918;2022-11-20T21:37:19;20.60;;;13.20;;
8113;SDS011;4099;52.684;9.918;2022-11-20T21:42:26;21.70;;;12.27;;
8113;SDS011;4099;52.684;9.918;2022-11-20T21:47:29;20.73;;;12.40;;
8113;SDS011;4099;52.684;9.918;2022-11-20T21:52:36;18.17;;;12.43;;
8113;SDS011;4099;52.684;9.918;2022-11-20T21:57:39;18.53;;;11.30;;
8113;SDS011;4099;52.684;9.918;2022-11-20T22:02:45;18.00;;;11.37;;
8113;SDS011;4099;52.684;9.918;2022-11-20T22:07:51;20.83;;;12.50;;
8113;SDS011;4099;52.684;9.918;2022-11-20T22:13:00;19.83;;;11.93;;
8113;SDS011;4099;52.684;9.918;2022-11-20T22:18:18;24.00;;;13.90;;
8113;SDS011;4099;52.684;9.918;2022-11-20T22:23:24;21.90;;;13.20;;
8113;SDS011;4099;52.684;9.918;2022-11-20T22:28:27;20.27;;;13.00;;
8113;SDS011;4099;52.684;9.918;2022-11-20T22:33:30;22.07;;;13.33;;
8113;SDS011;4099;52.684;9.918;2022-11-20T22:38:36;21.17;;;13.20;;
8113;SDS011;4099;52.684;9.918;2022-11-20T22:43:40;20.53;;;13.60;;
8113;SDS011;4099;52.684;9.918;2022-11-20T22:48:44;22.47;;;13.73;;
8113;SDS011;4099;52.684;9.918;2022-11-20T22:53:55;20.97;;;12.97;;
8113;SDS011;4099;52.684;9.918;2022-11-20T22:58:58;21.57;;;12.90;;
8113;SDS011;4099;52.684;9.918;2022-11-20T23:04:03;22.17;;;13.80;;
8113;SDS011;4099;52.684;9.918;2022-11-20T23:09:16;22.27;;;12.10;;
8113;SDS011;4099;52.684;9.918;2022-11-20T23:14:19;20.60;;;13.00;;
8113;SDS011;4099;52.684;9.918;2022-11-20T23:19:27;22.03;;;13.33;;
8113;SDS011;4099;52.684;9.918;2022-11-20T23:24:35;22.23;;;13.33;;
8113;SDS011;4099;52.684;9.918;2022-11-20T23:29:39;23.70;;;13.87;;
8113;SDS011;4099;52.684;9.918;2022-11-20T23:34:42;21.17;;;12.67;;
8113;SDS011;4099;52.684;9.918;2022-11-20T23:39:46;22.33;;;13.67;;
8113;SDS011;4099;52.684;9.918;2022-11-20T23:44:49;23.93;;;15.53;;
8113;SDS011;4099;52.684;9.918;2022-11-20T23:49:53;24.87;;;15.70;;
8113;SDS011;4099;52.684;9.918;2022-11-20T23:54:58;25.43;;;13.73;;
